KFNT/FNT METAR and TAF weather

Enter ICAO airport designator
Station Type Date Time Source
KFNT METAR 2019/08/19 01:53 UTC NOAA

KFNT 190153Z AUTO 22005KT 10SM CLR 22/20 A2987 RMK AO2 PRESRR SLP108 T02220200


Station Type Date Time Source
KFNT Decoded METAR 2019/08/19 01:53 UTC NOAA

Station name not available
Aug 18, 2019 - 09:53 PM EDT / 2019.08.19 0153 UTC
Wind: from the SW (220 degrees) at 6 MPH (5 KT):0
Visibility: 10 mile(s):0
Sky conditions: clear
Temperature: 72.0 F (22.2 C)
Dew Point: 68.0 F (20.0 C)
Relative Humidity: 87%
Pressure (altimeter): 29.87 in. Hg (1011 hPa)
Pressure tendency: rising rapidly
ob: KFNT 190153Z AUTO 22005KT 10SM CLR 22/20 A2987 RMK AO2 PRESRR SLP108 T02220200
cycle: 2

Station Type Date Time Source
KFNT TAF 2019/08/18 21:59 UTC NOAA

TAF
AMD KFNT 182059Z 1821/1918 19011KT P6SM SCT040 BKN100
TEMPO 1823/1901 2SM TSRA OVC025CB
FM190300 21007KT P6SM BKN020
FM190800 24004KT 5SM BR BKN020
FM191500 30004KT P6SM BKN030

Example: see airport list